createdAt,value
2019-05-19T00:02:25.672Z,24.38
2019-05-19T00:05:00.051Z,24.38
2019-05-19T00:07:34.086Z,24.40
2019-05-19T00:10:09.796Z,24.38
2019-05-19T00:12:43.970Z,24.38
2019-05-19T00:15:18.115Z,24.38
2019-05-19T00:17:53.323Z,24.39
2019-05-19T00:20:27.421Z,24.36
2019-05-19T00:23:01.824Z,24.36
2019-05-19T00:25:36.532Z,24.38
2019-05-19T00:28:11.013Z,24.38
2019-05-19T00:30:45.187Z,24.40
2019-05-19T00:33:19.365Z,24.41
2019-05-19T00:35:53.928Z,24.44
2019-05-19T00:38:28.183Z,24.53
2019-05-19T00:41:02.473Z,24.49
2019-05-19T00:43:36.429Z,24.49
2019-05-19T00:46:10.819Z,24.53
2019-05-19T00:48:44.981Z,24.50
2019-05-19T00:51:19.652Z,24.48
2019-05-19T00:53:53.947Z,24.47
2019-05-19T00:56:28.442Z,24.44
2019-05-19T00:59:05.318Z,24.42
2019-05-19T01:01:39.501Z,24.42
2019-05-19T01:04:13.748Z,24.42
2019-05-19T01:06:48.152Z,24.40
2019-05-19T01:09:22.391Z,24.44
2019-05-19T01:11:56.492Z,24.40
2019-05-19T01:14:30.613Z,24.41
2019-05-19T01:17:04.691Z,24.41
2019-05-19T01:19:38.929Z,24.42
2019-05-19T01:22:14.036Z,24.42
2019-05-19T01:24:48.353Z,24.40
2019-05-19T01:27:22.484Z,24.39
2019-05-19T01:29:56.485Z,24.40
2019-05-19T01:32:30.745Z,24.43
2019-05-19T01:35:04.680Z,24.40
2019-05-19T01:37:39.153Z,24.41
2019-05-19T01:40:13.907Z,24.44
2019-05-19T01:42:48.027Z,24.42
2019-05-19T01:45:22.427Z,24.40
2019-05-19T01:47:56.988Z,24.42
2019-05-19T01:50:32.502Z,24.40
2019-05-19T01:53:06.720Z,24.38
2019-05-19T01:55:40.586Z,24.43
2019-05-19T01:58:14.707Z,24.35
2019-05-19T02:00:48.622Z,24.38
2019-05-19T02:03:22.882Z,24.39
2019-05-19T02:05:57.191Z,24.40
2019-05-19T02:08:31.287Z,24.46
2019-05-19T02:11:05.628Z,24.43
2019-05-19T02:13:39.698Z,24.44
2019-05-19T02:16:13.754Z,24.43
2019-05-19T02:18:48.184Z,24.40
2019-05-19T02:21:22.134Z,24.41
2019-05-19T02:23:56.160Z,24.43
2019-05-19T02:26:30.201Z,24.44
2019-05-19T02:29:04.467Z,24.43
2019-05-19T02:31:39.347Z,24.42
2019-05-19T02:34:13.468Z,24.41
2019-05-19T02:36:47.603Z,24.42
2019-05-19T02:39:21.859Z,24.43
2019-05-19T02:41:58.051Z,24.43
2019-05-19T02:44:33.825Z,24.42
2019-05-19T02:47:08.121Z,24.40
2019-05-19T02:49:44.516Z,24.44
2019-05-19T02:52:19.581Z,24.44
2019-05-19T02:54:53.562Z,24.46
2019-05-19T02:57:28.111Z,24.44
2019-05-19T03:00:02.661Z,24.46
2019-05-19T03:02:37.928Z,24.46
2019-05-19T03:05:12.111Z,24.46
2019-05-19T03:07:46.496Z,24.44
2019-05-19T03:10:20.444Z,24.49
2019-05-19T03:12:54.559Z,24.57
2019-05-19T03:15:28.831Z,24.69
2019-05-19T03:18:02.817Z,24.65
2019-05-19T03:20:37.634Z,24.63
2019-05-19T03:23:11.585Z,24.60
2019-05-19T03:25:45.567Z,24.59
2019-05-19T03:28:19.936Z,24.61
2019-05-19T03:31:12.878Z,24.58
2019-05-19T03:33:48.651Z,24.51
2019-05-19T03:36:22.899Z,24.49
2019-05-19T03:38:57.228Z,24.86
2019-05-19T03:41:31.630Z,25.02
2019-05-19T03:44:05.785Z,25.18
2019-05-19T03:46:40.187Z,25.29
2019-05-19T03:49:14.575Z,25.42
2019-05-19T03:51:49.063Z,25.51
2019-05-19T03:54:23.313Z,25.61
2019-05-19T03:56:57.563Z,25.70
2019-05-19T03:59:31.486Z,25.77
2019-05-19T04:02:05.593Z,25.89
2019-05-19T04:04:39.877Z,25.95
2019-05-19T04:07:14.061Z,26.02
2019-05-19T04:09:47.966Z,26.06
2019-05-19T04:12:22.131Z,26.10
2019-05-19T04:14:56.430Z,26.12
2019-05-19T04:17:30.603Z,26.42
2019-05-19T04:20:05.031Z,26.62
2019-05-19T04:22:39.010Z,26.76
2019-05-19T04:25:13.188Z,26.92
2019-05-19T04:27:47.304Z,26.99
2019-05-19T04:30:21.990Z,27.03
2019-05-19T04:32:55.952Z,27.14
2019-05-19T04:35:30.069Z,27.22
2019-05-19T04:38:04.080Z,27.22
2019-05-19T04:40:38.359Z,27.17
2019-05-19T04:43:12.356Z,27.13
2019-05-19T04:45:47.474Z,27.05
2019-05-19T04:48:21.428Z,27.08
2019-05-19T04:50:55.594Z,27.23
2019-05-19T04:53:29.861Z,27.22
2019-05-19T04:56:04.129Z,27.23
2019-05-19T04:58:38.203Z,27.23
2019-05-19T05:01:12.397Z,27.25
2019-05-19T05:03:46.490Z,27.38
2019-05-19T05:06:21.927Z,27.55
2019-05-19T05:08:56.169Z,27.61
2019-05-19T05:11:30.474Z,27.66
2019-05-19T05:14:04.532Z,27.66
2019-05-19T05:16:38.991Z,27.65
2019-05-19T05:19:13.203Z,27.60
2019-05-19T05:21:47.410Z,27.56
2019-05-19T05:24:21.642Z,27.55
2019-05-19T05:26:57.025Z,27.52
2019-05-19T05:29:31.186Z,27.55
2019-05-19T05:32:05.089Z,27.56
2019-05-19T05:34:40.190Z,27.56
2019-05-19T05:37:14.299Z,27.60
2019-05-19T05:39:48.365Z,27.62
2019-05-19T05:42:22.534Z,27.58
2019-05-19T05:44:56.746Z,27.55
2019-05-19T05:47:30.535Z,27.53
2019-05-19T05:50:04.485Z,27.51
2019-05-19T05:52:39.196Z,27.50
2019-05-19T05:55:13.626Z,27.50
2019-05-19T05:57:47.899Z,27.50
2019-05-19T06:00:22.913Z,27.51
2019-05-19T06:02:57.122Z,27.52
2019-05-19T06:05:31.527Z,27.52
2019-05-19T06:08:05.676Z,27.53
2019-05-19T06:10:39.709Z,27.54
2019-05-19T06:13:13.775Z,27.55
2019-05-19T06:15:48.039Z,27.55
2019-05-19T06:18:22.391Z,27.57
2019-05-19T06:20:56.697Z,27.58
2019-05-19T06:23:31.064Z,27.59
2019-05-19T06:26:05.492Z,27.60
2019-05-19T06:28:39.987Z,27.61
2019-05-19T06:31:15.801Z,27.61
2019-05-19T06:33:49.893Z,27.61
2019-05-19T06:36:23.981Z,27.88
2019-05-19T06:38:58.184Z,27.88
2019-05-19T06:41:32.310Z,27.89
2019-05-19T06:44:06.523Z,27.91
2019-05-19T06:46:40.366Z,27.92
2019-05-19T06:49:14.590Z,27.94
2019-05-19T06:51:48.356Z,27.96
2019-05-19T06:54:22.212Z,27.98
2019-05-19T06:56:56.144Z,27.99
2019-05-19T06:59:30.063Z,28.02
2019-05-19T07:02:04.017Z,28.02
2019-05-19T07:04:37.994Z,28.03
2019-05-19T07:07:12.307Z,28.08
2019-05-19T07:09:57.780Z,28.10
2019-05-19T07:12:21.904Z,28.10
2019-05-19T07:14:56.174Z,28.10
2019-05-19T07:17:30.292Z,28.13
2019-05-19T07:20:04.620Z,28.17
2019-05-19T07:22:39.626Z,28.17
2019-05-19T07:25:15.659Z,28.17
2019-05-19T07:27:49.906Z,28.21
2019-05-19T07:30:24.312Z,28.20
2019-05-19T07:32:58.579Z,28.19
2019-05-19T07:35:32.800Z,28.20
2019-05-19T07:38:07.604Z,28.22
2019-05-19T07:40:42.136Z,28.24
2019-05-19T07:43:16.260Z,28.43
2019-05-19T07:45:50.528Z,28.50
2019-05-19T07:48:24.574Z,28.49
2019-05-19T07:50:58.690Z,28.48
2019-05-19T07:53:42.472Z,28.46
2019-05-19T07:56:08.924Z,28.44
2019-05-19T07:58:44.303Z,28.46
2019-05-19T08:01:18.463Z,28.47
2019-05-19T08:03:52.695Z,28.50
2019-05-19T08:06:27.137Z,28.49
2019-05-19T08:09:01.331Z,28.51
2019-05-19T08:11:37.553Z,28.52
2019-05-19T08:14:11.846Z,28.53
2019-05-19T08:16:46.275Z,28.54
2019-05-19T08:19:20.112Z,28.57
2019-05-19T08:21:54.359Z,28.59
2019-05-19T08:24:29.675Z,28.59
2019-05-19T08:27:04.052Z,28.66
2019-05-19T08:29:39.245Z,28.66
2019-05-19T08:32:13.714Z,28.67
2019-05-19T08:34:47.977Z,28.66
2019-05-19T08:37:22.231Z,28.68
2019-05-19T08:39:56.244Z,28.69
2019-05-19T08:42:30.697Z,28.70
2019-05-19T08:45:04.496Z,28.78
2019-05-19T08:47:39.122Z,28.77
2019-05-19T08:50:13.886Z,28.78
2019-05-19T08:52:48.157Z,28.77
2019-05-19T08:55:22.984Z,28.81
2019-05-19T08:57:57.996Z,28.82
2019-05-19T09:00:37.566Z,28.53
2019-05-19T09:03:08.301Z,28.03
2019-05-19T09:05:42.668Z,27.55
2019-05-19T09:08:16.489Z,27.15
2019-05-19T09:10:50.638Z,26.79
2019-05-19T09:13:24.877Z,26.57
2019-05-19T09:15:58.964Z,26.40
2019-05-19T09:18:33.173Z,26.25
2019-05-19T09:21:07.186Z,26.13
2019-05-19T09:23:41.604Z,26.09
2019-05-19T09:26:15.684Z,26.00
2019-05-19T09:28:49.837Z,25.67
2019-05-19T09:31:24.000Z,25.33
2019-05-19T09:33:58.166Z,25.21
2019-05-19T09:36:33.343Z,25.02
2019-05-19T09:39:09.284Z,24.92
2019-05-19T09:41:43.401Z,24.84
2019-05-19T09:44:17.643Z,24.89
2019-05-19T09:46:51.792Z,25.22
2019-05-19T09:49:36.496Z,25.36
2019-05-19T09:52:11.394Z,25.38
2019-05-19T09:54:45.998Z,25.36
2019-05-19T09:57:20.282Z,25.35
2019-05-19T09:59:54.514Z,25.36
2019-05-19T10:02:28.726Z,25.38
2019-05-19T10:05:02.706Z,25.32
2019-05-19T10:07:36.583Z,25.30
2019-05-19T10:10:17.612Z,25.29
2019-05-19T10:12:51.712Z,25.28
2019-05-19T10:15:25.720Z,25.25
2019-05-19T10:17:59.872Z,25.23
2019-05-19T10:20:34.251Z,25.18
2019-05-19T10:23:08.527Z,25.16
2019-05-19T10:25:42.874Z,25.13
2019-05-19T10:28:17.107Z,25.10
2019-05-19T10:30:51.318Z,25.10
2019-05-19T10:33:25.519Z,25.07
2019-05-19T10:35:59.815Z,25.07
2019-05-19T10:38:33.980Z,25.06
2019-05-19T10:41:08.360Z,25.07
2019-05-19T10:43:42.641Z,25.05
2019-05-19T10:46:16.920Z,25.02
2019-05-19T10:48:51.195Z,25.04
2019-05-19T10:51:25.600Z,24.92
2019-05-19T10:54:00.022Z,24.94
2019-05-19T10:56:34.241Z,24.94
2019-05-19T10:59:08.616Z,24.88
2019-05-19T11:01:42.748Z,24.85
2019-05-19T11:04:16.963Z,24.87
2019-05-19T11:06:50.956Z,24.83
2019-05-19T11:09:25.293Z,24.83
2019-05-19T11:11:59.388Z,24.83
2019-05-19T11:14:33.616Z,24.85
2019-05-19T11:17:07.976Z,24.85
2019-05-19T11:19:42.145Z,24.83
2019-05-19T11:22:16.605Z,24.78
2019-05-19T11:24:50.645Z,24.72
2019-05-19T11:27:24.715Z,24.71
2019-05-19T11:29:59.005Z,24.76
2019-05-19T11:32:32.886Z,24.75
2019-05-19T11:35:07.346Z,24.75
2019-05-19T11:37:41.494Z,24.75
2019-05-19T11:40:16.240Z,24.76
2019-05-19T11:42:50.320Z,24.71
2019-05-19T11:45:24.347Z,24.67
2019-05-19T11:47:58.608Z,24.69
2019-05-19T11:50:32.737Z,24.72
2019-05-19T11:53:07.188Z,24.71
2019-05-19T11:55:41.575Z,24.75
2019-05-19T11:58:16.086Z,24.70
2019-05-19T12:00:50.286Z,24.69
2019-05-19T12:03:24.734Z,24.70
2019-05-19T12:05:58.998Z,24.73
2019-05-19T12:08:33.291Z,24.73
2019-05-19T12:11:07.632Z,24.68
2019-05-19T12:13:41.806Z,24.73
2019-05-19T12:16:15.962Z,24.68
2019-05-19T12:18:50.286Z,24.70
2019-05-19T12:21:25.448Z,24.69
2019-05-19T12:23:59.621Z,24.72
2019-05-19T12:26:34.865Z,24.73
2019-05-19T12:29:09.072Z,24.71
2019-05-19T12:31:43.063Z,24.72
2019-05-19T12:34:17.098Z,24.70
2019-05-19T12:36:51.052Z,24.71
2019-05-19T12:39:25.088Z,24.69
2019-05-19T12:41:59.081Z,24.67
2019-05-19T12:44:33.341Z,24.64
2019-05-19T12:47:07.727Z,24.65
2019-05-19T12:49:41.793Z,24.72
2019-05-19T12:52:16.036Z,24.71
2019-05-19T12:54:50.130Z,24.70
2019-05-19T12:57:24.152Z,24.71
2019-05-19T12:59:58.243Z,24.75
2019-05-19T13:02:32.586Z,25.35
2019-05-19T13:05:06.695Z,26.11
2019-05-19T13:07:41.023Z,26.60
2019-05-19T13:10:15.050Z,26.94
2019-05-19T13:12:49.063Z,27.24
2019-05-19T13:15:23.428Z,27.43
2019-05-19T13:17:57.710Z,27.54
2019-05-19T13:20:32.044Z,27.68
2019-05-19T13:23:06.287Z,27.81
2019-05-19T13:25:40.647Z,27.88
2019-05-19T13:28:14.884Z,27.97
2019-05-19T13:30:49.344Z,28.02
2019-05-19T13:33:23.691Z,28.10
2019-05-19T13:35:58.301Z,28.18
2019-05-19T13:38:32.340Z,28.23
2019-05-19T13:41:06.580Z,28.30
2019-05-19T13:43:40.644Z,28.38
2019-05-19T13:46:14.984Z,28.48
2019-05-19T13:48:49.038Z,28.52
2019-05-19T13:51:23.432Z,28.59
2019-05-19T13:53:57.526Z,28.64
2019-05-19T13:56:31.869Z,28.69
2019-05-19T13:59:06.042Z,28.73
2019-05-19T14:01:40.154Z,28.77
2019-05-19T14:04:14.280Z,28.81
2019-05-19T14:06:48.644Z,28.83
2019-05-19T14:09:22.869Z,28.86
2019-05-19T14:11:57.438Z,28.91
2019-05-19T14:14:31.459Z,28.96
2019-05-19T14:17:05.752Z,28.98
2019-05-19T14:19:39.980Z,29.08
2019-05-19T14:22:14.151Z,28.97
2019-05-19T14:24:48.151Z,28.87
2019-05-19T14:27:30.048Z,28.75
2019-05-19T14:29:58.874Z,28.75
2019-05-19T14:32:33.252Z,28.68
2019-05-19T14:35:09.878Z,28.65
2019-05-19T14:37:45.793Z,28.62
2019-05-19T14:40:21.014Z,28.62
2019-05-19T14:43:01.272Z,28.66
2019-05-19T14:45:35.273Z,28.58
2019-05-19T14:48:09.506Z,28.58
2019-05-19T14:50:43.698Z,28.63
2019-05-19T14:53:17.894Z,28.66
2019-05-19T14:55:51.941Z,28.65
2019-05-19T14:58:25.935Z,28.67
2019-05-19T15:01:04.094Z,28.68
2019-05-19T15:03:38.283Z,28.69
2019-05-19T15:06:12.506Z,28.69
2019-05-19T15:08:46.766Z,28.71
2019-05-19T15:11:20.928Z,28.69
2019-05-19T15:13:55.137Z,28.74
2019-05-19T15:16:29.191Z,28.76
2019-05-19T15:19:03.348Z,28.76
2019-05-19T15:21:37.420Z,28.77
2019-05-19T15:24:11.360Z,28.79
2019-05-19T15:26:45.613Z,28.80
2019-05-19T15:29:19.845Z,28.81
2019-05-19T15:31:54.021Z,28.78
2019-05-19T15:34:28.271Z,28.86
2019-05-19T15:37:06.134Z,28.86
2019-05-19T15:39:40.458Z,28.86
2019-05-19T15:42:14.715Z,29.16
2019-05-19T15:44:48.692Z,29.44
2019-05-19T15:47:22.755Z,29.58
2019-05-19T15:49:56.680Z,29.62
2019-05-19T15:52:30.664Z,29.65
2019-05-19T15:55:04.688Z,29.69
2019-05-19T15:57:38.736Z,29.67
2019-05-19T16:00:13.760Z,29.70
2019-05-19T16:02:48.001Z,29.72
2019-05-19T16:05:22.041Z,29.75
2019-05-19T16:07:56.342Z,29.77
2019-05-19T16:10:30.539Z,29.82
2019-05-19T16:13:04.662Z,29.82
2019-05-19T16:15:38.854Z,29.84
2019-05-19T16:18:13.014Z,29.87
2019-05-19T16:20:47.106Z,29.90
2019-05-19T16:23:22.415Z,29.92
2019-05-19T16:26:39.780Z,29.65
2019-05-19T16:29:13.904Z,29.01
2019-05-19T16:31:48.411Z,28.39
2019-05-19T16:34:23.602Z,28.05
2019-05-19T16:36:58.882Z,27.86
2019-05-19T16:39:33.025Z,27.80
2019-05-19T16:42:07.180Z,27.71
2019-05-19T16:44:41.562Z,27.69
2019-05-19T16:47:15.577Z,27.60
2019-05-19T16:49:49.660Z,27.66
2019-05-19T16:52:23.833Z,27.99
2019-05-19T16:55:15.237Z,27.85
2019-05-19T16:57:49.382Z,27.61
2019-05-19T17:00:24.228Z,27.42
2019-05-19T17:02:58.598Z,27.31
2019-05-19T17:05:33.007Z,27.27
2019-05-19T17:08:07.364Z,27.15
2019-05-19T17:10:41.581Z,27.03
2019-05-19T17:13:15.441Z,26.92
2019-05-19T17:15:49.750Z,26.82
2019-05-19T17:18:23.657Z,26.70
2019-05-19T17:20:57.811Z,26.59
2019-05-19T17:23:32.245Z,26.54
2019-05-19T17:26:06.663Z,26.44
2019-05-19T17:28:40.641Z,26.37
2019-05-19T17:31:14.805Z,26.30
2019-05-19T17:33:48.910Z,26.27
2019-05-19T17:36:23.125Z,26.13
2019-05-19T17:38:56.998Z,26.05
2019-05-19T17:41:31.258Z,25.96
2019-05-19T17:44:05.856Z,25.93
2019-05-19T17:46:39.880Z,25.98
2019-05-19T17:49:13.987Z,25.94
2019-05-19T17:51:48.141Z,25.90
2019-05-19T17:54:22.673Z,25.87
2019-05-19T17:56:56.848Z,25.85
2019-05-19T17:59:31.737Z,25.83
2019-05-19T18:02:06.141Z,25.82
2019-05-19T18:04:41.206Z,25.80
2019-05-19T18:07:15.305Z,25.80
2019-05-19T18:09:49.470Z,25.77
2019-05-19T18:12:24.468Z,25.76
2019-05-19T18:14:58.502Z,25.74
2019-05-19T18:17:32.693Z,25.72
2019-05-19T18:20:06.786Z,25.68
2019-05-19T18:22:40.770Z,25.64
2019-05-19T18:25:14.923Z,25.60
2019-05-19T18:27:49.398Z,25.59
2019-05-19T18:30:23.913Z,25.55
2019-05-19T18:32:58.035Z,25.51
2019-05-19T18:35:32.336Z,25.52
2019-05-19T18:38:06.716Z,25.51
2019-05-19T18:40:40.993Z,25.49
2019-05-19T18:43:15.266Z,25.47
2019-05-19T18:45:49.388Z,25.45
2019-05-19T18:48:23.868Z,25.41
2019-05-19T18:50:58.287Z,25.37
2019-05-19T18:53:32.876Z,25.37
2019-05-19T18:56:07.303Z,25.37
2019-05-19T18:58:41.782Z,25.34
2019-05-19T19:01:16.061Z,25.35
2019-05-19T19:03:50.882Z,25.35
2019-05-19T19:06:25.365Z,25.32
2019-05-19T19:08:59.801Z,25.34
2019-05-19T19:11:34.187Z,25.33
2019-05-19T19:14:08.597Z,25.30
2019-05-19T19:16:42.842Z,25.29
2019-05-19T19:19:17.550Z,25.23
2019-05-19T19:21:51.829Z,25.24
2019-05-19T19:24:26.423Z,25.22
2019-05-19T19:27:00.581Z,25.22
2019-05-19T19:29:34.899Z,25.23
2019-05-19T19:32:09.442Z,25.21
2019-05-19T19:34:44.676Z,25.19
2019-05-19T19:37:18.964Z,25.18
2019-05-19T19:39:53.275Z,25.19
2019-05-19T19:42:27.486Z,25.13
2019-05-19T19:45:01.761Z,25.10
2019-05-19T19:47:36.176Z,25.07
2019-05-19T19:50:10.269Z,25.07
2019-05-19T19:52:44.545Z,25.08
2019-05-19T19:55:18.861Z,25.18
2019-05-19T19:57:53.170Z,25.18
2019-05-19T20:00:46.235Z,25.52
2019-05-19T20:03:20.639Z,25.90
2019-05-19T20:05:55.202Z,26.03
2019-05-19T20:08:29.547Z,26.07
2019-05-19T20:11:03.883Z,26.03
2019-05-19T20:13:37.952Z,25.59
2019-05-19T20:16:12.336Z,25.06
2019-05-19T20:18:46.544Z,24.72
2019-05-19T20:21:20.663Z,24.54
2019-05-19T20:23:55.131Z,24.34
2019-05-19T20:26:29.811Z,24.22
2019-05-19T20:29:04.252Z,24.13
2019-05-19T20:31:38.427Z,24.01
2019-05-19T20:34:12.862Z,23.96
2019-05-19T20:36:47.052Z,23.96
2019-05-19T20:39:21.493Z,24.01
2019-05-19T20:41:55.807Z,24.14
2019-05-19T20:44:31.169Z,24.16
2019-05-19T20:47:05.652Z,24.71
2019-05-19T20:49:39.848Z,24.54
2019-05-19T20:52:14.179Z,24.15
2019-05-19T20:54:48.603Z,24.01
2019-05-19T20:57:23.155Z,23.98
2019-05-19T20:59:57.731Z,23.92
2019-05-19T21:02:31.893Z,23.98
2019-05-19T21:05:06.529Z,24.01
2019-05-19T21:07:40.716Z,24.14
2019-05-19T21:10:15.196Z,24.55
2019-05-19T21:12:49.727Z,24.20
2019-05-19T21:15:24.183Z,23.86
2019-05-19T21:17:59.023Z,23.71
2019-05-19T21:20:34.014Z,23.61
2019-05-19T21:23:08.866Z,23.53
2019-05-19T21:25:43.491Z,23.67
2019-05-19T21:28:18.719Z,23.84
2019-05-19T21:31:04.870Z,24.26
2019-05-19T21:33:34.453Z,24.42
2019-05-19T21:36:09.459Z,23.94
2019-05-19T21:38:43.957Z,23.67
2019-05-19T21:41:19.108Z,23.66
2019-05-19T21:43:53.729Z,23.65
2019-05-19T21:46:34.566Z,23.58
2019-05-19T21:49:09.407Z,23.55
2019-05-19T21:51:44.246Z,23.52
2019-05-19T21:54:18.996Z,23.47
2019-05-19T21:56:54.975Z,23.54
2019-05-19T21:59:29.500Z,23.66
2019-05-19T22:02:04.712Z,24.14
2019-05-19T22:04:39.383Z,24.22
2019-05-19T22:07:25.307Z,23.68
2019-05-19T22:10:00.014Z,23.55
2019-05-19T22:12:34.741Z,23.70
2019-05-19T22:15:12.244Z,23.80
2019-05-19T22:17:46.956Z,23.87
2019-05-19T22:20:21.812Z,23.91
2019-05-19T22:22:56.485Z,24.03
2019-05-19T22:25:30.879Z,24.38
2019-05-19T22:28:05.774Z,23.94
2019-05-19T22:30:40.436Z,23.60
2019-05-19T22:33:15.018Z,23.61
2019-05-19T22:35:50.178Z,23.71
2019-05-19T22:38:24.753Z,23.70
2019-05-19T22:40:59.433Z,23.80
2019-05-19T22:43:34.290Z,23.89
2019-05-19T22:46:08.642Z,24.09
2019-05-19T22:48:43.147Z,24.22
2019-05-19T22:51:17.637Z,23.84
2019-05-19T22:53:52.592Z,23.66
2019-05-19T22:56:27.204Z,23.63
2019-05-19T22:59:01.844Z,23.59
2019-05-19T23:01:50.721Z,23.59
2019-05-19T23:04:12.901Z,23.55
2019-05-19T23:06:47.859Z,23.51
2019-05-19T23:09:22.096Z,23.84
2019-05-19T23:11:56.745Z,23.81
2019-05-19T23:14:31.234Z,23.58
2019-05-19T23:17:05.495Z,23.54
2019-05-19T23:19:40.827Z,23.50
2019-05-19T23:22:15.115Z,23.57
2019-05-19T23:24:49.423Z,23.62
2019-05-19T23:27:23.571Z,23.61
2019-05-19T23:29:57.679Z,23.68
2019-05-19T23:32:31.653Z,24.04
2019-05-19T23:35:05.888Z,23.70
2019-05-19T23:37:40.195Z,23.54
2019-05-19T23:40:14.491Z,23.42
2019-05-19T23:42:48.504Z,23.49
2019-05-19T23:45:22.571Z,23.61
2019-05-19T23:47:56.492Z,23.65
2019-05-19T23:50:30.700Z,23.66
2019-05-19T23:53:04.751Z,23.88
2019-05-19T23:55:38.787Z,24.08
2019-05-19T23:58:12.745Z,23.71
